sensor_id;sensor_type;location;lat;lon;timestamp;pressure;altitude;pressure_sealevel;temperature;humidity
74915;BME280;63475;45.140;-75.616;2023-06-26T00:00:46;99938.97;;;23.93;56.09
74915;BME280;63475;45.140;-75.616;2023-06-26T00:02:50;99942.72;;;23.85;55.40
74915;BME280;63475;45.140;-75.616;2023-06-26T00:04:52;99944.44;;;23.80;56.03
74915;BME280;63475;45.140;-75.616;2023-06-26T00:06:56;99940.44;;;23.76;55.67
74915;BME280;63475;45.140;-75.616;2023-06-26T00:08:58;99947.38;;;23.71;57.06
74915;BME280;63475;45.140;-75.616;2023-06-26T00:11:01;99946.09;;;23.67;56.21
74915;BME280;63475;45.140;-75.616;2023-06-26T00:13:04;99936.03;;;23.61;56.35
74915;BME280;63475;45.140;-75.616;2023-06-26T00:15:07;99943.56;;;23.59;55.79
74915;BME280;63475;45.140;-75.616;2023-06-26T00:17:11;99933.56;;;23.53;55.81
74915;BME280;63475;45.140;-75.616;2023-06-26T00:19:14;99933.97;;;23.50;55.73
74915;BME280;63475;45.140;-75.616;2023-06-26T00:21:16;99934.75;;;23.44;56.30
74915;BME280;63475;45.140;-75.616;2023-06-26T00:23:19;99930.13;;;23.38;55.95
74915;BME280;63475;45.140;-75.616;2023-06-26T00:25:22;99933.50;;;23.33;56.00
74915;BME280;63475;45.140;-75.616;2023-06-26T00:27:24;99927.63;;;23.30;56.32
74915;BME280;63475;45.140;-75.616;2023-06-26T00:29:27;99924.69;;;23.25;57.33
74915;BME280;63475;45.140;-75.616;2023-06-26T00:31:30;99928.88;;;23.21;56.86
74915;BME280;63475;45.140;-75.616;2023-06-26T00:33:33;99933.69;;;23.19;56.45
74915;BME280;63475;45.140;-75.616;2023-06-26T00:35:36;99929.06;;;23.13;56.42
74915;BME280;63475;45.140;-75.616;2023-06-26T00:37:39;99939.53;;;23.09;56.38
74915;BME280;63475;45.140;-75.616;2023-06-26T00:39:41;99928.44;;;23.04;57.40
74915;BME280;63475;45.140;-75.616;2023-06-26T00:41:44;99921.28;;;22.96;56.84
74915;BME280;63475;45.140;-75.616;2023-06-26T00:43:47;99927.97;;;22.94;57.57
74915;BME280;63475;45.140;-75.616;2023-06-26T00:45:49;99930.06;;;22.92;57.28
74915;BME280;63475;45.140;-75.616;2023-06-26T00:47:52;99932.59;;;22.87;57.52
74915;BME280;63475;45.140;-75.616;2023-06-26T00:49:55;99933.19;;;22.82;57.21
74915;BME280;63475;45.140;-75.616;2023-06-26T00:51:58;99928.16;;;22.79;57.34
74915;BME280;63475;45.140;-75.616;2023-06-26T00:54:01;99935.03;;;22.75;57.33
74915;BME280;63475;45.140;-75.616;2023-06-26T00:56:05;99934.97;;;22.68;57.35
74915;BME280;63475;45.140;-75.616;2023-06-26T00:58:07;99939.38;;;22.63;57.83
74915;BME280;63475;45.140;-75.616;2023-06-26T01:00:11;99937.47;;;22.57;58.27
74915;BME280;63475;45.140;-75.616;2023-06-26T01:02:14;99938.91;;;22.53;58.65
74915;BME280;63475;45.140;-75.616;2023-06-26T01:04:20;99951.22;;;22.49;58.60
74915;BME280;63475;45.140;-75.616;2023-06-26T01:06:24;99938.25;;;22.44;57.87
74915;BME280;63475;45.140;-75.616;2023-06-26T01:08:29;99944.94;;;22.42;57.93
74915;BME280;63475;45.140;-75.616;2023-06-26T01:10:32;99936.53;;;22.36;57.51
74915;BME280;63475;45.140;-75.616;2023-06-26T01:12:35;99941.53;;;22.33;57.54
74915;BME280;63475;45.140;-75.616;2023-06-26T01:14:41;99936.69;;;22.28;58.22
74915;BME280;63475;45.140;-75.616;2023-06-26T01:16:44;99933.72;;;22.23;57.99
74915;BME280;63475;45.140;-75.616;2023-06-26T01:18:49;99942.31;;;22.20;59.35
74915;BME280;63475;45.140;-75.616;2023-06-26T01:20:53;99943.75;;;22.16;59.02
74915;BME280;63475;45.140;-75.616;2023-06-26T01:23:20;99948.09;;;22.11;60.40
74915;BME280;63475;45.140;-75.616;2023-06-26T01:25:41;99949.72;;;22.05;60.52
74915;BME280;63475;45.140;-75.616;2023-06-26T01:27:50;99957.59;;;22.00;60.21
74915;BME280;63475;45.140;-75.616;2023-06-26T01:29:55;99971.78;;;21.95;60.78
74915;BME280;63475;45.140;-75.616;2023-06-26T01:32:00;99965.91;;;21.92;60.63
74915;BME280;63475;45.140;-75.616;2023-06-26T01:34:03;99966.69;;;21.86;60.99
74915;BME280;63475;45.140;-75.616;2023-06-26T01:36:07;99976.25;;;21.82;60.56
74915;BME280;63475;45.140;-75.616;2023-06-26T01:40:16;99973.72;;;21.74;59.89
74915;BME280;63475;45.140;-75.616;2023-06-26T01:42:18;99974.09;;;21.71;60.14
74915;BME280;63475;45.140;-75.616;2023-06-26T01:44:26;99983.66;;;21.66;60.64
74915;BME280;63475;45.140;-75.616;2023-06-26T01:46:39;99970.69;;;21.62;60.37
74915;BME280;63475;45.140;-75.616;2023-06-26T01:51:07;99970.59;;;21.55;61.64
74915;BME280;63475;45.140;-75.616;2023-06-26T01:53:13;99971.03;;;21.52;61.41
74915;BME280;63475;45.140;-75.616;2023-06-26T01:55:24;99971.59;;;21.48;61.73
74915;BME280;63475;45.140;-75.616;2023-06-26T01:57:31;99973.88;;;21.44;61.69
74915;BME280;63475;45.140;-75.616;2023-06-26T01:59:34;99968.16;;;21.39;61.40
74915;BME280;63475;45.140;-75.616;2023-06-26T02:01:37;99971.25;;;21.36;61.58
74915;BME280;63475;45.140;-75.616;2023-06-26T02:03:40;99971.47;;;21.34;61.69
74915;BME280;63475;45.140;-75.616;2023-06-26T02:05:43;99962.91;;;21.31;62.20
74915;BME280;63475;45.140;-75.616;2023-06-26T02:07:46;99967.88;;;21.27;61.43
74915;BME280;63475;45.140;-75.616;2023-06-26T02:09:49;99968.22;;;21.24;61.80
74915;BME280;63475;45.140;-75.616;2023-06-26T02:11:52;99970.28;;;21.22;61.77
74915;BME280;63475;45.140;-75.616;2023-06-26T02:13:55;99968.78;;;21.20;62.44
74915;BME280;63475;45.140;-75.616;2023-06-26T02:15:57;99967.28;;;21.17;62.03
74915;BME280;63475;45.140;-75.616;2023-06-26T02:18:00;99972.91;;;21.16;62.02
74915;BME280;63475;45.140;-75.616;2023-06-26T02:20:03;99967.69;;;21.14;62.38
74915;BME280;63475;45.140;-75.616;2023-06-26T02:22:06;99958.06;;;21.12;61.60
74915;BME280;63475;45.140;-75.616;2023-06-26T02:24:09;99967.22;;;21.11;62.60
74915;BME280;63475;45.140;-75.616;2023-06-26T02:26:12;99962.41;;;21.06;62.58
74915;BME280;63475;45.140;-75.616;2023-06-26T02:28:14;99968.00;;;21.05;62.14
74915;BME280;63475;45.140;-75.616;2023-06-26T02:30:17;99963.81;;;21.02;62.59
74915;BME280;63475;45.140;-75.616;2023-06-26T02:32:20;99964.19;;;20.99;62.12
74915;BME280;63475;45.140;-75.616;2023-06-26T02:34:22;99967.09;;;20.97;62.17
74915;BME280;63475;45.140;-75.616;2023-06-26T02:36:26;99960.19;;;20.95;62.59
74915;BME280;63475;45.140;-75.616;2023-06-26T02:38:28;99960.38;;;20.93;62.13
74915;BME280;63475;45.140;-75.616;2023-06-26T02:40:31;99965.97;;;20.92;61.74
74915;BME280;63475;45.140;-75.616;2023-06-26T02:42:35;99964.47;;;20.89;62.49
74915;BME280;63475;45.140;-75.616;2023-06-26T02:44:37;99965.69;;;20.87;62.25
74915;BME280;63475;45.140;-75.616;2023-06-26T02:46:40;99967.59;;;20.86;61.36
74915;BME280;63475;45.140;-75.616;2023-06-26T02:48:43;99964.25;;;20.84;61.62
74915;BME280;63475;45.140;-75.616;2023-06-26T02:50:46;99961.91;;;20.81;61.51
74915;BME280;63475;45.140;-75.616;2023-06-26T02:52:49;99956.69;;;20.80;62.00
74915;BME280;63475;45.140;-75.616;2023-06-26T02:54:54;99947.06;;;20.77;61.35
74915;BME280;63475;45.140;-75.616;2023-06-26T02:56:57;99940.13;;;20.75;61.43
74915;BME280;63475;45.140;-75.616;2023-06-26T02:58:59;99940.31;;;20.73;61.89
74915;BME280;63475;45.140;-75.616;2023-06-26T03:01:02;99937.16;;;20.70;62.27
74915;BME280;63475;45.140;-75.616;2023-06-26T03:03:05;99934.63;;;20.68;61.88
74915;BME280;63475;45.140;-75.616;2023-06-26T03:05:08;99935.84;;;20.65;63.25
74915;BME280;63475;45.140;-75.616;2023-06-26T03:07:10;99937.72;;;20.65;61.33
74915;BME280;63475;45.140;-75.616;2023-06-26T03:09:13;99938.13;;;20.62;61.59
74915;BME280;63475;45.140;-75.616;2023-06-26T03:11:16;99944.56;;;20.61;61.81
74915;BME280;63475;45.140;-75.616;2023-06-26T03:13:19;99943.06;;;20.58;61.94
74915;BME280;63475;45.140;-75.616;2023-06-26T03:15:21;99939.53;;;20.58;62.19
74915;BME280;63475;45.140;-75.616;2023-06-26T03:17:24;99934.47;;;20.55;61.39
74915;BME280;63475;45.140;-75.616;2023-06-26T03:19:27;99933.81;;;20.53;61.76
74915;BME280;63475;45.140;-75.616;2023-06-26T03:21:30;99927.75;;;20.51;61.84
74915;BME280;63475;45.140;-75.616;2023-06-26T03:23:32;99927.91;;;20.49;62.67
74915;BME280;63475;45.140;-75.616;2023-06-26T03:25:35;99923.72;;;20.47;62.61
74915;BME280;63475;45.140;-75.616;2023-06-26T03:27:38;99926.41;;;20.47;61.58
74915;BME280;63475;45.140;-75.616;2023-06-26T03:29:40;99916.78;;;20.44;62.62
74915;BME280;63475;45.140;-75.616;2023-06-26T03:31:43;99909.88;;;20.42;61.07
74915;BME280;63475;45.140;-75.616;2023-06-26T03:33:46;99907.16;;;20.42;61.13
74915;BME280;63475;45.140;-75.616;2023-06-26T03:35:49;99901.13;;;20.40;62.12
74915;BME280;63475;45.140;-75.616;2023-06-26T03:37:51;99906.75;;;20.38;60.43
74915;BME280;63475;45.140;-75.616;2023-06-26T03:39:54;99897.97;;;20.36;61.27
74915;BME280;63475;45.140;-75.616;2023-06-26T03:41:57;99906.28;;;20.34;61.09
74915;BME280;63475;45.140;-75.616;2023-06-26T03:44:02;99904.59;;;20.33;61.47
74915;BME280;63475;45.140;-75.616;2023-06-26T03:46:06;99904.78;;;20.32;61.39
74915;BME280;63475;45.140;-75.616;2023-06-26T03:48:08;99904.31;;;20.28;61.65
74915;BME280;63475;45.140;-75.616;2023-06-26T03:50:11;99899.91;;;20.27;61.07
74915;BME280;63475;45.140;-75.616;2023-06-26T03:52:14;99895.53;;;20.26;60.88
74915;BME280;63475;45.140;-75.616;2023-06-26T03:54:16;99895.72;;;20.25;61.26
74915;BME280;63475;45.140;-75.616;2023-06-26T03:56:19;99885.06;;;20.23;61.54
74915;BME280;63475;45.140;-75.616;2023-06-26T03:58:22;99882.53;;;20.22;60.99
74915;BME280;63475;45.140;-75.616;2023-06-26T04:00:24;99874.59;;;20.20;61.36
74915;BME280;63475;45.140;-75.616;2023-06-26T04:02:27;99865.88;;;20.18;61.84
74915;BME280;63475;45.140;-75.616;2023-06-26T04:04:30;99859.78;;;20.16;61.11
74915;BME280;63475;45.140;-75.616;2023-06-26T04:06:33;99859.97;;;20.15;60.73
74915;BME280;63475;45.140;-75.616;2023-06-26T04:08:36;99854.75;;;20.13;61.49
74915;BME280;63475;45.140;-75.616;2023-06-26T04:10:38;99853.06;;;20.12;61.50
74915;BME280;63475;45.140;-75.616;2023-06-26T04:12:41;99850.72;;;20.09;61.64
74915;BME280;63475;45.140;-75.616;2023-06-26T04:14:44;99848.03;;;20.09;60.57
74915;BME280;63475;45.140;-75.616;2023-06-26T04:16:46;99851.75;;;20.08;61.03
74915;BME280;63475;45.140;-75.616;2023-06-26T04:18:49;99857.38;;;20.07;60.65
74915;BME280;63475;45.140;-75.616;2023-06-26T04:21:24;99860.25;;;20.05;61.54
74915;BME280;63475;45.140;-75.616;2023-06-26T04:23:27;99854.19;;;20.03;61.31
74915;BME280;63475;45.140;-75.616;2023-06-26T04:25:29;99853.53;;;20.01;62.14
74915;BME280;63475;45.140;-75.616;2023-06-26T04:27:32;99851.00;;;19.99;61.96
74915;BME280;63475;45.140;-75.616;2023-06-26T04:29:37;99848.50;;;19.98;62.57
74915;BME280;63475;45.140;-75.616;2023-06-26T04:31:40;99838.69;;;19.97;62.33
74915;BME280;63475;45.140;-75.616;2023-06-26T04:33:42;99839.94;;;19.94;61.64
74915;BME280;63475;45.140;-75.616;2023-06-26T04:35:45;99832.84;;;19.93;61.92
74915;BME280;63475;45.140;-75.616;2023-06-26T04:37:50;99819.69;;;19.90;62.49
74915;BME280;63475;45.140;-75.616;2023-06-26T04:39:53;99814.44;;;19.89;62.10
74915;BME280;63475;45.140;-75.616;2023-06-26T04:41:56;99808.19;;;19.88;62.98
74915;BME280;63475;45.140;-75.616;2023-06-26T04:43:58;99804.84;;;19.86;62.61
74915;BME280;63475;45.140;-75.616;2023-06-26T04:46:04;99802.31;;;19.85;62.68
74915;BME280;63475;45.140;-75.616;2023-06-26T04:48:07;99797.94;;;19.84;62.42
74915;BME280;63475;45.140;-75.616;2023-06-26T04:50:11;99786.44;;;19.82;62.11
74915;BME280;63475;45.140;-75.616;2023-06-26T04:52:13;99790.19;;;19.81;62.01
74915;BME280;63475;45.140;-75.616;2023-06-26T04:54:16;99787.66;;;19.79;61.65
74915;BME280;63475;45.140;-75.616;2023-06-26T04:56:19;99781.59;;;19.77;63.00
74915;BME280;63475;45.140;-75.616;2023-06-26T04:58:21;99778.03;;;19.77;63.07
74915;BME280;63475;45.140;-75.616;2023-06-26T05:00:24;99781.16;;;19.74;63.55
74915;BME280;63475;45.140;-75.616;2023-06-26T05:02:27;99772.56;;;19.70;63.80
74915;BME280;63475;45.140;-75.616;2023-06-26T05:04:30;99762.09;;;19.67;63.57
74915;BME280;63475;45.140;-75.616;2023-06-26T05:06:32;99763.28;;;19.64;62.01
74915;BME280;63475;45.140;-75.616;2023-06-26T05:08:35;99763.28;;;19.64;63.07
74915;BME280;63475;45.140;-75.616;2023-06-26T05:10:38;99750.97;;;19.62;63.07
74915;BME280;63475;45.140;-75.616;2023-06-26T05:12:41;99753.69;;;19.62;62.52
74915;BME280;63475;45.140;-75.616;2023-06-26T05:14:44;99754.72;;;19.61;64.28
74915;BME280;63475;45.140;-75.616;2023-06-26T05:16:47;99750.31;;;19.60;64.17
74915;BME280;63475;45.140;-75.616;2023-06-26T05:18:50;99747.34;;;19.55;63.96
74915;BME280;63475;45.140;-75.616;2023-06-26T05:20:53;99744.81;;;19.53;63.67
74915;BME280;63475;45.140;-75.616;2023-06-26T05:22:56;99751.25;;;19.52;64.60
74915;BME280;63475;45.140;-75.616;2023-06-26T05:25:00;99753.13;;;19.52;63.81
74915;BME280;63475;45.140;-75.616;2023-06-26T05:27:06;99753.34;;;19.50;63.67
74915;BME280;63475;45.140;-75.616;2023-06-26T05:29:09;99754.34;;;19.49;64.06
74915;BME280;63475;45.140;-75.616;2023-06-26T05:31:12;99740.19;;;19.47;63.89
74915;BME280;63475;45.140;-75.616;2023-06-26T05:33:17;99738.88;;;19.43;63.52
74915;BME280;63475;45.140;-75.616;2023-06-26T05:35:20;99742.59;;;19.42;64.81
74915;BME280;63475;45.140;-75.616;2023-06-26T05:37:26;99754.44;;;19.41;64.54
74915;BME280;63475;45.140;-75.616;2023-06-26T05:39:31;99747.34;;;19.40;64.34
74915;BME280;63475;45.140;-75.616;2023-06-26T05:41:34;99754.81;;;19.38;63.81
74915;BME280;63475;45.140;-75.616;2023-06-26T05:43:36;99739.78;;;19.36;64.36
74915;BME280;63475;45.140;-75.616;2023-06-26T05:45:40;99745.38;;;19.34;63.66
74915;BME280;63475;45.140;-75.616;2023-06-26T05:47:43;99737.28;;;19.34;64.35
74915;BME280;63475;45.140;-75.616;2023-06-26T05:49:46;99725.78;;;19.32;64.68
74915;BME280;63475;45.140;-75.616;2023-06-26T05:51:49;99729.53;;;19.31;64.21
74915;BME280;63475;45.140;-75.616;2023-06-26T05:53:52;99729.53;;;19.31;64.68
74915;BME280;63475;45.140;-75.616;2023-06-26T05:55:55;99733.25;;;19.30;64.64
74915;BME280;63475;45.140;-75.616;2023-06-26T05:57:58;99722.44;;;19.30;64.86
74915;BME280;63475;45.140;-75.616;2023-06-26T06:00:02;99720.75;;;19.29;65.40
74915;BME280;63475;45.140;-75.616;2023-06-26T06:02:07;99715.75;;;19.26;64.78
74915;BME280;63475;45.140;-75.616;2023-06-26T06:04:10;99720.13;;;19.27;65.63
74915;BME280;63475;45.140;-75.616;2023-06-26T06:06:13;99721.16;;;19.26;66.22
74915;BME280;63475;45.140;-75.616;2023-06-26T06:08:16;99718.63;;;19.24;65.61
74915;BME280;63475;45.140;-75.616;2023-06-26T06:10:19;99728.63;;;19.24;65.53
74915;BME280;63475;45.140;-75.616;2023-06-26T06:12:21;99725.91;;;19.24;65.45
74915;BME280;63475;45.140;-75.616;2023-06-26T06:14:24;99718.81;;;19.23;65.84
74915;BME280;63475;45.140;-75.616;2023-06-26T06:16:27;99716.13;;;19.23;65.56
74915;BME280;63475;45.140;-75.616;2023-06-26T06:18:31;99714.44;;;19.22;65.45
74915;BME280;63475;45.140;-75.616;2023-06-26T06:20:35;99717.31;;;19.20;65.95
74915;BME280;63475;45.140;-75.616;2023-06-26T06:22:39;99714.16;;;19.17;66.07
74915;BME280;63475;45.140;-75.616;2023-06-26T06:24:41;99716.09;;;19.08;64.87
74915;BME280;63475;45.140;-75.616;2023-06-26T06:26:44;99715.91;;;19.10;66.67
74915;BME280;63475;45.140;-75.616;2023-06-26T06:28:47;99719.75;;;19.01;66.45
74915;BME280;63475;45.140;-75.616;2023-06-26T06:30:50;99730.38;;;19.02;66.20
74915;BME280;63475;45.140;-75.616;2023-06-26T06:32:53;99729.34;;;19.03;66.82
74915;BME280;63475;45.140;-75.616;2023-06-26T06:34:56;99724.78;;;19.04;66.80
74915;BME280;63475;45.140;-75.616;2023-06-26T06:36:59;99730.00;;;19.05;67.01
74915;BME280;63475;45.140;-75.616;2023-06-26T06:39:02;99734.56;;;19.05;67.24
74915;BME280;63475;45.140;-75.616;2023-06-26T06:41:05;99725.63;;;19.04;67.16
74915;BME280;63475;45.140;-75.616;2023-06-26T06:43:08;99714.03;;;18.95;66.80
74915;BME280;63475;45.140;-75.616;2023-06-26T06:45:14;99723.47;;;19.00;67.03
74915;BME280;63475;45.140;-75.616;2023-06-26T06:47:16;99714.34;;;19.01;66.92
74915;BME280;63475;45.140;-75.616;2023-06-26T06:49:19;99714.34;;;19.01;67.47
74915;BME280;63475;45.140;-75.616;2023-06-26T06:51:22;99713.31;;;19.02;67.31
74915;BME280;63475;45.140;-75.616;2023-06-26T06:53:25;99717.03;;;19.01;67.17
74915;BME280;63475;45.140;-75.616;2023-06-26T06:55:28;99714.78;;;18.89;67.56
74915;BME280;63475;45.140;-75.616;2023-06-26T06:57:32;99710.03;;;18.91;67.56
74915;BME280;63475;45.140;-75.616;2023-06-26T06:59:38;99708.53;;;18.89;67.52
74915;BME280;63475;45.140;-75.616;2023-06-26T07:01:40;99704.81;;;18.90;67.83
74915;BME280;63475;45.140;-75.616;2023-06-26T07:03:43;99705.47;;;18.92;67.40
74915;BME280;63475;45.140;-75.616;2023-06-26T07:05:46;99702.75;;;18.92;67.29
74915;BME280;63475;45.140;-75.616;2023-06-26T07:07:49;99709.84;;;18.93;68.17
74915;BME280;63475;45.140;-75.616;2023-06-26T07:09:52;99705.66;;;18.90;67.83
74915;BME280;63475;45.140;-75.616;2023-06-26T07:11:54;99699.41;;;18.90;68.05
74915;BME280;63475;45.140;-75.616;2023-06-26T07:13:57;99704.81;;;18.90;67.38
74915;BME280;63475;45.140;-75.616;2023-06-26T07:16:00;99700.06;;;18.92;67.94
74915;BME280;63475;45.140;-75.616;2023-06-26T07:18:02;99694.84;;;18.90;67.95
74915;BME280;63475;45.140;-75.616;2023-06-26T07:20:06;99689.78;;;18.87;67.93
74915;BME280;63475;45.140;-75.616;2023-06-26T07:22:10;99685.22;;;18.88;67.91
74915;BME280;63475;45.140;-75.616;2023-06-26T07:24:14;99679.63;;;18.89;67.58
74915;BME280;63475;45.140;-75.616;2023-06-26T07:26:16;99671.53;;;18.89;67.73
74915;BME280;63475;45.140;-75.616;2023-06-26T07:28:30;99672.38;;;18.90;67.61
74915;BME280;63475;45.140;-75.616;2023-06-26T07:30:32;99672.38;;;18.90;67.83
74915;BME280;63475;45.140;-75.616;2023-06-26T07:32:35;99675.91;;;18.90;67.79
74915;BME280;63475;45.140;-75.616;2023-06-26T07:34:38;99673.22;;;18.90;67.49
74915;BME280;63475;45.140;-75.616;2023-06-26T07:36:41;99673.22;;;18.90;68.18
74915;BME280;63475;45.140;-75.616;2023-06-26T07:38:43;99676.94;;;18.89;67.80
74915;BME280;63475;45.140;-75.616;2023-06-26T07:40:46;99681.31;;;18.90;68.14
74915;BME280;63475;45.140;-75.616;2023-06-26T07:42:49;99681.50;;;18.89;67.93
74915;BME280;63475;45.140;-75.616;2023-06-26T07:44:52;99680.66;;;18.88;67.73
74915;BME280;63475;45.140;-75.616;2023-06-26T07:46:55;99678.81;;;18.89;67.70
74915;BME280;63475;45.140;-75.616;2023-06-26T07:48:58;99681.50;;;18.89;68.17
74915;BME280;63475;45.140;-75.616;2023-06-26T07:51:00;99681.69;;;18.87;68.54
74915;BME280;63475;45.140;-75.616;2023-06-26T07:53:03;99684.38;;;18.87;68.13
74915;BME280;63475;45.140;-75.616;2023-06-26T07:55:07;99678.16;;;18.87;68.25
74915;BME280;63475;45.140;-75.616;2023-06-26T07:57:11;99677.28;;;18.86;68.26
74915;BME280;63475;45.140;-75.616;2023-06-26T07:59:15;99671.88;;;18.86;67.26
74915;BME280;63475;45.140;-75.616;2023-06-26T08:01:17;99663.09;;;18.84;67.69
74915;BME280;63475;45.140;-75.616;2023-06-26T08:03:20;99656.69;;;18.85;67.68
74915;BME280;63475;45.140;-75.616;2023-06-26T08:05:35;99653.13;;;18.85;67.45
74915;BME280;63475;45.140;-75.616;2023-06-26T08:07:39;99651.47;;;18.84;67.41
74915;BME280;63475;45.140;-75.616;2023-06-26T08:09:41;99655.00;;;18.84;68.14
74915;BME280;63475;45.140;-75.616;2023-06-26T08:11:44;99657.91;;;18.83;67.55
74915;BME280;63475;45.140;-75.616;2023-06-26T08:13:47;99655.22;;;18.83;67.36
74915;BME280;63475;45.140;-75.616;2023-06-26T08:15:51;99658.72;;;18.83;67.94
74915;BME280;63475;45.140;-75.616;2023-06-26T08:17:53;99662.25;;;18.84;67.77
74915;BME280;63475;45.140;-75.616;2023-06-26T08:19:56;99659.78;;;18.82;67.50
74915;BME280;63475;45.140;-75.616;2023-06-26T08:21:59;99657.06;;;18.82;67.83
74915;BME280;63475;45.140;-75.616;2023-06-26T08:24:02;99657.91;;;18.83;67.47
74915;BME280;63475;45.140;-75.616;2023-06-26T08:26:05;99658.09;;;18.81;67.87
74915;BME280;63475;45.140;-75.616;2023-06-26T08:28:10;99665.19;;;18.82;68.07
74915;BME280;63475;45.140;-75.616;2023-06-26T08:30:13;99654.38;;;18.82;68.50
74915;BME280;63475;45.140;-75.616;2023-06-26T08:32:16;99651.66;;;18.82;68.22
74915;BME280;63475;45.140;-75.616;2023-06-26T08:34:18;99654.56;;;18.81;68.39
74915;BME280;63475;45.140;-75.616;2023-06-26T08:36:21;99654.56;;;18.81;68.40
74915;BME280;63475;45.140;-75.616;2023-06-26T08:38:24;99655.41;;;18.81;68.42
74915;BME280;63475;45.140;-75.616;2023-06-26T08:40:27;99658.47;;;18.78;67.87
74915;BME280;63475;45.140;-75.616;2023-06-26T08:42:30;99665.72;;;18.78;67.82
74915;BME280;63475;45.140;-75.616;2023-06-26T08:44:33;99660.31;;;18.78;67.98
74915;BME280;63475;45.140;-75.616;2023-06-26T08:46:37;99668.44;;;18.78;68.34
74915;BME280;63475;45.140;-75.616;2023-06-26T08:48:41;99665.06;;;18.76;68.29
74915;BME280;63475;45.140;-75.616;2023-06-26T08:50:52;99657.16;;;18.74;68.32
74915;BME280;63475;45.140;-75.616;2023-06-26T08:53:14;99654.63;;;18.73;68.04
74915;BME280;63475;45.140;-75.616;2023-06-26T08:55:22;99649.22;;;18.73;68.16
74915;BME280;63475;45.140;-75.616;2023-06-26T08:57:26;99653.78;;;18.72;68.16
74915;BME280;63475;45.140;-75.616;2023-06-26T08:59:30;99650.25;;;18.72;68.27
74915;BME280;63475;45.140;-75.616;2023-06-26T09:01:33;99655.84;;;18.70;68.09
74915;BME280;63475;45.140;-75.616;2023-06-26T09:03:37;99666.63;;;18.70;68.67
74915;BME280;63475;45.140;-75.616;2023-06-26T09:05:39;99655.84;;;18.70;68.72
74915;BME280;63475;45.140;-75.616;2023-06-26T09:07:42;99663.28;;;18.68;69.31
74915;BME280;63475;45.140;-75.616;2023-06-26T09:09:46;99665.97;;;18.68;68.71
74915;BME280;63475;45.140;-75.616;2023-06-26T09:11:48;99660.75;;;18.67;68.59
74915;BME280;63475;45.140;-75.616;2023-06-26T09:13:52;99658.25;;;18.65;68.59
74915;BME280;63475;45.140;-75.616;2023-06-26T09:15:54;99661.78;;;18.65;68.73
74915;BME280;63475;45.140;-75.616;2023-06-26T09:17:57;99667.38;;;18.64;68.69
74915;BME280;63475;45.140;-75.616;2023-06-26T09:20:00;99670.91;;;18.64;68.76
74915;BME280;63475;45.140;-75.616;2023-06-26T09:22:03;99669.22;;;18.63;69.24
74915;BME280;63475;45.140;-75.616;2023-06-26T09:24:10;99659.63;;;18.61;69.08
74915;BME280;63475;45.140;-75.616;2023-06-26T09:26:14;99660.47;;;18.61;69.39
74915;BME280;63475;45.140;-75.616;2023-06-26T09:28:17;99657.13;;;18.59;69.37
74915;BME280;63475;45.140;-75.616;2023-06-26T09:30:20;99651.91;;;18.58;69.62
74915;BME280;63475;45.140;-75.616;2023-06-26T09:32:26;99650.06;;;18.58;69.42
74915;BME280;63475;45.140;-75.616;2023-06-26T09:34:31;99650.25;;;18.57;69.55
74915;BME280;63475;45.140;-75.616;2023-06-26T09:36:34;99645.00;;;18.55;69.68
74915;BME280;63475;45.140;-75.616;2023-06-26T09:38:41;99652.28;;;18.55;69.68
74915;BME280;63475;45.140;-75.616;2023-06-26T09:40:44;99656.00;;;18.54;69.70
74915;BME280;63475;45.140;-75.616;2023-06-26T09:42:46;99663.25;;;18.53;69.98
74915;BME280;63475;45.140;-75.616;2023-06-26T09:44:49;99659.72;;;18.53;69.79
74915;BME280;63475;45.140;-75.616;2023-06-26T09:46:55;99660.75;;;18.52;69.55
74915;BME280;63475;45.140;-75.616;2023-06-26T09:49:05;99664.28;;;18.52;69.84
74915;BME280;63475;45.140;-75.616;2023-06-26T09:51:09;99666.16;;;18.52;69.85
74915;BME280;63475;45.140;-75.616;2023-06-26T09:53:15;99666.31;;;18.50;69.82
74915;BME280;63475;45.140;-75.616;2023-06-26T09:55:19;99670.03;;;18.49;70.06
74915;BME280;63475;45.140;-75.616;2023-06-26T09:57:27;99653.19;;;18.47;70.02
74915;BME280;63475;45.140;-75.616;2023-06-26T09:59:30;99656.38;;;18.51;70.05
74915;BME280;63475;45.140;-75.616;2023-06-26T10:01:33;99657.56;;;18.48;70.10
74915;BME280;63475;45.140;-75.616;2023-06-26T10:03:36;99656.38;;;18.51;69.99
74915;BME280;63475;45.140;-75.616;2023-06-26T10:05:40;99654.69;;;18.50;70.15
74915;BME280;63475;45.140;-75.616;2023-06-26T10:07:43;99653.66;;;18.51;70.12
74915;BME280;63475;45.140;-75.616;2023-06-26T10:09:46;99652.16;;;18.48;70.21
74915;BME280;63475;45.140;-75.616;2023-06-26T10:12:13;99651.97;;;18.50;70.39
74915;BME280;63475;45.140;-75.616;2023-06-26T10:14:21;99654.69;;;18.50;70.52
74915;BME280;63475;45.140;-75.616;2023-06-26T10:16:26;99649.28;;;18.50;70.57
74915;BME280;63475;45.140;-75.616;2023-06-26T10:18:33;99660.09;;;18.50;70.59
74915;BME280;63475;45.140;-75.616;2023-06-26T10:20:39;99662.97;;;18.48;70.67
74915;BME280;63475;45.140;-75.616;2023-06-26T10:22:47;99665.47;;;18.50;71.11
74915;BME280;63475;45.140;-75.616;2023-06-26T10:24:50;99671.06;;;18.48;70.80
74915;BME280;63475;45.140;-75.616;2023-06-26T10:27:00;99663.63;;;18.50;70.84
74915;BME280;63475;45.140;-75.616;2023-06-26T10:29:05;99659.44;;;18.48;71.22
74915;BME280;63475;45.140;-75.616;2023-06-26T10:31:10;99665.66;;;18.48;71.67
74915;BME280;63475;45.140;-75.616;2023-06-26T10:33:14;99667.34;;;18.49;71.41
74915;BME280;63475;45.140;-75.616;2023-06-26T10:35:17;99656.72;;;18.48;71.59
74915;BME280;63475;45.140;-75.616;2023-06-26T10:37:20;99662.13;;;18.48;71.18
74915;BME280;63475;45.140;-75.616;2023-06-26T10:39:23;99655.88;;;18.47;71.78
74915;BME280;63475;45.140;-75.616;2023-06-26T10:41:26;99650.47;;;18.47;71.99
74915;BME280;63475;45.140;-75.616;2023-06-26T10:43:30;99656.06;;;18.46;72.20